sensor_id;sensor_type;location;lat;lon;timestamp;pressure;altitude;pressure_sealevel;temperature;humidity
63019;BME280;49105;46.046;10.760;2023-02-28T00:00:49;95863.19;;;3.62;51.20
63019;BME280;49105;46.046;10.760;2023-02-28T00:03:14;95862.91;;;3.52;51.22
63019;BME280;49105;46.046;10.760;2023-02-28T00:05:44;95857.44;;;3.54;51.34
63019;BME280;49105;46.046;10.760;2023-02-28T00:08:18;95865.06;;;3.55;51.20
63019;BME280;49105;46.046;10.760;2023-02-28T00:10:44;95861.88;;;3.53;51.29
63019;BME280;49105;46.046;10.760;2023-02-28T00:16:31;95860.03;;;3.54;51.41
63019;BME280;49105;46.046;10.760;2023-02-28T00:19:05;95859.72;;;3.50;51.41
63019;BME280;49105;46.046;10.760;2023-02-28T00:21:31;95864.28;;;3.55;51.61
63019;BME280;49105;46.046;10.760;2023-02-28T00:24:03;95866.31;;;3.53;51.35
63019;BME280;49105;46.046;10.760;2023-02-28T00:26:29;95869.53;;;3.36;51.55
63019;BME280;49105;46.046;10.760;2023-02-28T00:29:00;95863.59;;;3.29;51.86
63019;BME280;49105;46.046;10.760;2023-02-28T00:31:26;95869.41;;;3.31;51.79
63019;BME280;49105;46.046;10.760;2023-02-28T00:34:01;95863.03;;;3.27;51.84
63019;BME280;49105;46.046;10.760;2023-02-28T00:36:35;95866.38;;;3.16;51.87
63019;BME280;49105;46.046;10.760;2023-02-28T00:39:09;95860.22;;;3.10;52.00
63019;BME280;49105;46.046;10.760;2023-02-28T00:41:41;95866.97;;;3.18;52.07
63019;BME280;49105;46.046;10.760;2023-02-28T00:44:06;95872.25;;;3.30;51.99
63019;BME280;49105;46.046;10.760;2023-02-28T00:46:38;95869.97;;;3.33;51.75
63019;BME280;49105;46.046;10.760;2023-02-28T00:49:03;95877.63;;;3.35;51.65
63019;BME280;49105;46.046;10.760;2023-02-28T00:51:29;95868.88;;;3.41;51.68
63019;BME280;49105;46.046;10.760;2023-02-28T00:53:57;95871.13;;;3.37;51.61
63019;BME280;49105;46.046;10.760;2023-02-28T00:56:25;95876.16;;;3.39;51.95
63019;BME280;49105;46.046;10.760;2023-02-28T00:58:51;95876.72;;;3.41;51.84
63019;BME280;49105;46.046;10.760;2023-02-28T01:01:16;95878.25;;;3.48;51.60
63019;BME280;49105;46.046;10.760;2023-02-28T01:03:42;95879.03;;;3.49;51.49
63019;BME280;49105;46.046;10.760;2023-02-28T01:06:13;95877.44;;;3.48;51.64
63019;BME280;49105;46.046;10.760;2023-02-28T01:08:51;95881.88;;;3.47;51.71
63019;BME280;49105;46.046;10.760;2023-02-28T01:11:17;95876.81;;;3.34;51.92
63019;BME280;49105;46.046;10.760;2023-02-28T01:13:45;95875.16;;;3.21;52.51
63019;BME280;49105;46.046;10.760;2023-02-28T01:16:17;95875.59;;;3.18;52.34
63019;BME280;49105;46.046;10.760;2023-02-28T01:19:02;95885.19;;;3.24;52.23
63019;BME280;49105;46.046;10.760;2023-02-28T01:21:27;95883.06;;;3.33;52.31
63019;BME280;49105;46.046;10.760;2023-02-28T01:23:57;95890.47;;;3.36;52.00
63019;BME280;49105;46.046;10.760;2023-02-28T01:26:26;95886.19;;;3.42;52.07
63019;BME280;49105;46.046;10.760;2023-02-28T01:29:00;95895.63;;;3.43;51.90
63019;BME280;49105;46.046;10.760;2023-02-28T01:31:35;95897.00;;;3.45;51.86
63019;BME280;49105;46.046;10.760;2023-02-28T01:34:01;95889.50;;;3.49;51.90
63019;BME280;49105;46.046;10.760;2023-02-28T01:36:34;95886.22;;;3.54;51.83
63019;BME280;49105;46.046;10.760;2023-02-28T01:39:00;95890.22;;;3.56;51.94
63019;BME280;49105;46.046;10.760;2023-02-28T01:41:29;95893.88;;;3.55;51.87
63019;BME280;49105;46.046;10.760;2023-02-28T01:44:07;95890.53;;;3.48;52.10
63019;BME280;49105;46.046;10.760;2023-02-28T01:46:39;95893.56;;;3.45;52.23
63019;BME280;49105;46.046;10.760;2023-02-28T01:49:16;95892.66;;;3.39;52.30
63019;BME280;49105;46.046;10.760;2023-02-28T01:54:56;95891.38;;;3.30;52.54
63019;BME280;49105;46.046;10.760;2023-02-28T01:57:43;95894.19;;;3.29;52.58
63019;BME280;49105;46.046;10.760;2023-02-28T02:00:13;95892.53;;;3.34;52.82
63019;BME280;49105;46.046;10.760;2023-02-28T02:02:46;95898.56;;;3.35;52.74
63019;BME280;49105;46.046;10.760;2023-02-28T02:05:24;95898.91;;;3.38;52.78
63019;BME280;49105;46.046;10.760;2023-02-28T02:07:54;95897.28;;;3.37;52.70
63019;BME280;49105;46.046;10.760;2023-02-28T02:10:39;95899.06;;;3.25;52.69
63019;BME280;49105;46.046;10.760;2023-02-28T02:18:54;95887.78;;;3.24;52.74
63019;BME280;49105;46.046;10.760;2023-02-28T02:27:13;95894.34;;;3.15;53.15
63019;BME280;49105;46.046;10.760;2023-02-28T02:41:23;95897.91;;;3.21;52.95
63019;BME280;49105;46.046;10.760;2023-02-28T02:44:13;95893.91;;;3.18;53.07
63019;BME280;49105;46.046;10.760;2023-02-28T02:46:48;95897.06;;;3.09;53.40
63019;BME280;49105;46.046;10.760;2023-02-28T02:49:37;95901.69;;;3.07;53.27
63019;BME280;49105;46.046;10.760;2023-02-28T02:52:06;95909.31;;;3.08;53.41
63019;BME280;49105;46.046;10.760;2023-02-28T02:54:41;95904.91;;;3.09;53.45
63019;BME280;49105;46.046;10.760;2023-02-28T02:57:24;95910.13;;;3.09;53.40
63019;BME280;49105;46.046;10.760;2023-02-28T02:59:53;95905.09;;;3.07;53.10
63019;BME280;49105;46.046;10.760;2023-02-28T03:02:31;95909.41;;;3.02;53.45
63019;BME280;49105;46.046;10.760;2023-02-28T03:05:02;95913.88;;;2.94;53.55
63019;BME280;49105;46.046;10.760;2023-02-28T03:07:35;95915.56;;;2.89;53.62
63019;BME280;49105;46.046;10.760;2023-02-28T03:10:01;95916.94;;;2.91;53.77
63019;BME280;49105;46.046;10.760;2023-02-28T03:12:33;95918.69;;;2.97;53.37
63019;BME280;49105;46.046;10.760;2023-02-28T03:15:12;95921.22;;;3.04;53.20
63019;BME280;49105;46.046;10.760;2023-02-28T03:17:55;95917.81;;;3.04;53.26
63019;BME280;49105;46.046;10.760;2023-02-28T03:20:42;95912.66;;;2.97;53.58
63019;BME280;49105;46.046;10.760;2023-02-28T03:23:23;95914.53;;;2.90;53.70
63019;BME280;49105;46.046;10.760;2023-02-28T03:26:00;95916.78;;;2.86;53.87
63019;BME280;49105;46.046;10.760;2023-02-28T03:31:59;95927.84;;;2.88;54.23
63019;BME280;49105;46.046;10.760;2023-02-28T03:34:37;95921.59;;;2.89;54.18
63019;BME280;49105;46.046;10.760;2023-02-28T03:37:13;95916.41;;;2.83;54.15
63019;BME280;49105;46.046;10.760;2023-02-28T03:40:00;95918.88;;;2.78;54.65
63019;BME280;49105;46.046;10.760;2023-02-28T03:42:31;95922.72;;;2.75;54.57
63019;BME280;49105;46.046;10.760;2023-02-28T03:45:04;95916.84;;;2.80;54.35
63019;BME280;49105;46.046;10.760;2023-02-28T03:50:18;95916.66;;;2.81;54.54
63019;BME280;49105;46.046;10.760;2023-02-28T03:53:20;95920.00;;;2.88;54.27
63019;BME280;49105;46.046;10.760;2023-02-28T03:55:50;95918.88;;;2.96;54.36
63019;BME280;49105;46.046;10.760;2023-02-28T04:01:17;95922.31;;;2.96;54.58
63019;BME280;49105;46.046;10.760;2023-02-28T04:03:45;95929.56;;;2.94;54.15
63019;BME280;49105;46.046;10.760;2023-02-28T04:06:20;95921.28;;;2.79;54.38
63019;BME280;49105;46.046;10.760;2023-02-28T04:08:49;95927.28;;;2.61;54.86
63019;BME280;49105;46.046;10.760;2023-02-28T04:11:30;95934.91;;;2.63;55.07
63019;BME280;49105;46.046;10.760;2023-02-28T04:13:57;95927.38;;;2.73;55.21
63019;BME280;49105;46.046;10.760;2023-02-28T04:16:36;95934.94;;;2.81;54.52
63019;BME280;49105;46.046;10.760;2023-02-28T04:19:10;95952.22;;;2.82;54.61
63019;BME280;49105;46.046;10.760;2023-02-28T04:21:38;95950.19;;;2.84;54.65
63019;BME280;49105;46.046;10.760;2023-02-28T04:24:15;95950.53;;;2.88;54.55
63019;BME280;49105;46.046;10.760;2023-02-28T04:26:52;95953.38;;;2.86;54.60
63019;BME280;49105;46.046;10.760;2023-02-28T04:29:26;95946.56;;;2.85;54.65
63019;BME280;49105;46.046;10.760;2023-02-28T04:31:53;95937.47;;;2.88;54.78
63019;BME280;49105;46.046;10.760;2023-02-28T04:34:19;95944.09;;;2.90;54.78
63019;BME280;49105;46.046;10.760;2023-02-28T04:36:51;95942.50;;;2.89;54.85
63019;BME280;49105;46.046;10.760;2023-02-28T04:39:20;95951.72;;;2.92;54.48
63019;BME280;49105;46.046;10.760;2023-02-28T04:41:52;95952.53;;;2.92;54.83
63019;BME280;49105;46.046;10.760;2023-02-28T04:44:22;95950.91;;;2.91;54.77
63019;BME280;49105;46.046;10.760;2023-02-28T04:46:50;95945.84;;;2.96;54.57
63019;BME280;49105;46.046;10.760;2023-02-28T04:49:22;95940.25;;;2.93;54.49
63019;BME280;49105;46.046;10.760;2023-02-28T04:51:48;95942.41;;;2.96;54.44
63019;BME280;49105;46.046;10.760;2023-02-28T04:54:18;95946.06;;;2.95;54.69
63019;BME280;49105;46.046;10.760;2023-02-28T04:56:49;95946.13;;;2.88;54.78
63019;BME280;49105;46.046;10.760;2023-02-28T04:59:15;95943.72;;;2.87;54.75
63019;BME280;49105;46.046;10.760;2023-02-28T05:01:49;95949.19;;;2.85;54.73
63019;BME280;49105;46.046;10.760;2023-02-28T05:04:15;95952.22;;;2.82;55.19
63019;BME280;49105;46.046;10.760;2023-02-28T05:10:03;95949.31;;;2.90;54.65
63019;BME280;49105;46.046;10.760;2023-02-28T05:12:32;95951.78;;;2.85;54.82
63019;BME280;49105;46.046;10.760;2023-02-28T05:15:10;95957.06;;;2.79;54.89
63019;BME280;49105;46.046;10.760;2023-02-28T05:17:43;95962.94;;;2.74;55.09
63019;BME280;49105;46.046;10.760;2023-02-28T05:20:16;95958.75;;;2.73;54.79
63019;BME280;49105;46.046;10.760;2023-02-28T05:22:42;95961.22;;;2.68;55.36
63019;BME280;49105;46.046;10.760;2023-02-28T05:25:19;95967.50;;;2.60;55.06
63019;BME280;49105;46.046;10.760;2023-02-28T05:27:51;95974.00;;;2.51;55.54
63019;BME280;49105;46.046;10.760;2023-02-28T05:30:20;95957.31;;;2.52;55.53
63019;BME280;49105;46.046;10.760;2023-02-28T05:32:50;95967.28;;;2.62;55.24
63019;BME280;49105;46.046;10.760;2023-02-28T05:35:15;95975.44;;;2.72;54.88
63019;BME280;49105;46.046;10.760;2023-02-28T05:37:50;95967.22;;;2.68;55.36
63019;BME280;49105;46.046;10.760;2023-02-28T05:40:16;95971.28;;;2.64;55.25
63019;BME280;49105;46.046;10.760;2023-02-28T05:42:42;95981.34;;;2.61;55.43
63019;BME280;49105;46.046;10.760;2023-02-28T05:45:08;95982.16;;;2.61;55.06
63019;BME280;49105;46.046;10.760;2023-02-28T05:47:34;95974.59;;;2.53;55.48
63019;BME280;49105;46.046;10.760;2023-02-28T05:50:07;95967.63;;;2.47;55.66
63019;BME280;49105;46.046;10.760;2023-02-28T05:52:43;95982.31;;;2.41;56.18
63019;BME280;49105;46.046;10.760;2023-02-28T05:55:21;95986.34;;;2.37;56.59
63019;BME280;49105;46.046;10.760;2023-02-28T05:57:52;95985.19;;;2.33;56.23
63019;BME280;49105;46.046;10.760;2023-02-28T06:00:26;95986.41;;;2.31;56.76
63019;BME280;49105;46.046;10.760;2023-02-28T06:02:55;95975.78;;;2.26;56.70
63019;BME280;49105;46.046;10.760;2023-02-28T06:05:32;95987.66;;;2.21;56.47
63019;BME280;49105;46.046;10.760;2023-02-28T06:08:07;95987.25;;;2.24;56.51
63019;BME280;49105;46.046;10.760;2023-02-28T06:10:39;95984.59;;;2.31;56.98
63019;BME280;49105;46.046;10.760;2023-02-28T06:13:13;95988.00;;;2.32;56.82
63019;BME280;49105;46.046;10.760;2023-02-28T06:15:39;95988.81;;;2.32;56.53
63019;BME280;49105;46.046;10.760;2023-02-28T06:18:16;95992.81;;;2.35;56.58
63019;BME280;49105;46.046;10.760;2023-02-28T06:20:41;95992.38;;;2.38;56.86
63019;BME280;49105;46.046;10.760;2023-02-28T06:23:07;95990.28;;;2.46;56.48
63019;BME280;49105;46.046;10.760;2023-02-28T06:25:45;95992.66;;;2.55;56.80
63019;BME280;49105;46.046;10.760;2023-02-28T06:28:13;95983.91;;;2.67;56.42
63019;BME280;49105;46.046;10.760;2023-02-28T06:30:39;95994.00;;;2.64;56.37
63019;BME280;49105;46.046;10.760;2023-02-28T06:33:04;95998.31;;;2.52;56.63
63019;BME280;49105;46.046;10.760;2023-02-28T06:35:36;96000.50;;;2.55;56.69
63019;BME280;49105;46.046;10.760;2023-02-28T06:38:07;96006.69;;;2.60;56.65
63019;BME280;49105;46.046;10.760;2023-02-28T06:40:42;96008.66;;;2.65;56.54
63019;BME280;49105;46.046;10.760;2023-02-28T06:46:30;96003.16;;;2.73;56.61
63019;BME280;49105;46.046;10.760;2023-02-28T06:49:03;96002.91;;;2.81;56.67
63019;BME280;49105;46.046;10.760;2023-02-28T06:51:29;96001.22;;;2.87;56.29
63019;BME280;49105;46.046;10.760;2023-02-28T06:53:57;96001.19;;;2.93;56.33
63019;BME280;49105;46.046;10.760;2023-02-28T06:56:32;96005.53;;;2.99;56.33
63019;BME280;49105;46.046;10.760;2023-02-28T06:58:58;95997.69;;;2.99;56.50
63019;BME280;49105;46.046;10.760;2023-02-28T07:01:33;96001.94;;;3.01;56.45
63019;BME280;49105;46.046;10.760;2023-02-28T07:04:05;96003.53;;;3.02;56.41
63019;BME280;49105;46.046;10.760;2023-02-28T07:06:31;96000.63;;;3.10;56.26
63019;BME280;49105;46.046;10.760;2023-02-28T07:08:59;95998.53;;;3.18;55.80
63019;BME280;49105;46.046;10.760;2023-02-28T07:11:27;96003.34;;;3.21;55.90
63019;BME280;49105;46.046;10.760;2023-02-28T07:13:58;95996.16;;;3.17;55.73
63019;BME280;49105;46.046;10.760;2023-02-28T07:16:35;96001.81;;;3.14;55.88
63019;BME280;49105;46.046;10.760;2023-02-28T07:19:04;95996.56;;;3.14;56.02
63019;BME280;49105;46.046;10.760;2023-02-28T07:21:30;95993.81;;;3.09;56.26
63019;BME280;49105;46.046;10.760;2023-02-28T07:24:01;95997.66;;;3.06;56.74
63019;BME280;49105;46.046;10.760;2023-02-28T07:26:30;96000.81;;;3.08;56.36
63019;BME280;49105;46.046;10.760;2023-02-28T07:28:55;95999.38;;;3.12;56.39
63019;BME280;49105;46.046;10.760;2023-02-28T07:31:30;95997.59;;;3.13;56.14
63019;BME280;49105;46.046;10.760;2023-02-28T07:33:56;95994.16;;;3.12;56.05
63019;BME280;49105;46.046;10.760;2023-02-28T07:36:34;95998.97;;;3.15;56.14
63019;BME280;49105;46.046;10.760;2023-02-28T07:38:59;95997.88;;;3.23;56.14
63019;BME280;49105;46.046;10.760;2023-02-28T07:41:25;96002.81;;;3.31;56.15
63019;BME280;49105;46.046;10.760;2023-02-28T07:43:55;96001.94;;;3.37;55.93
63019;BME280;49105;46.046;10.760;2023-02-28T07:46:28;96006.75;;;3.40;55.92
63019;BME280;49105;46.046;10.760;2023-02-28T07:49:06;95997.00;;;3.47;56.38
63019;BME280;49105;46.046;10.760;2023-02-28T07:51:44;95999.75;;;3.53;55.80
63019;BME280;49105;46.046;10.760;2023-02-28T07:54:10;95998.59;;;3.48;55.85
63019;BME280;49105;46.046;10.760;2023-02-28T07:56:41;96000.66;;;3.46;55.90
63019;BME280;49105;46.046;10.760;2023-02-28T07:59:07;95995.72;;;3.38;56.02
63019;BME280;49105;46.046;10.760;2023-02-28T08:01:32;95999.25;;;3.44;55.73
63019;BME280;49105;46.046;10.760;2023-02-28T08:04:07;96002.38;;;3.53;55.80
63019;BME280;49105;46.046;10.760;2023-02-28T08:06:45;96002.19;;;3.54;55.84
63019;BME280;49105;46.046;10.760;2023-02-28T08:09:17;96000.50;;;3.60;55.92
63019;BME280;49105;46.046;10.760;2023-02-28T08:11:48;95990.81;;;3.60;55.82
63019;BME280;49105;46.046;10.760;2023-02-28T08:14:22;95991.31;;;3.69;55.79
63019;BME280;49105;46.046;10.760;2023-02-28T08:16:57;95994.59;;;3.83;55.40
63019;BME280;49105;46.046;10.760;2023-02-28T08:19:23;95994.63;;;3.94;55.52
63019;BME280;49105;46.046;10.760;2023-02-28T08:21:48;96002.03;;;3.97;55.57
63019;BME280;49105;46.046;10.760;2023-02-28T08:24:20;96002.97;;;4.03;55.29
63019;BME280;49105;46.046;10.760;2023-02-28T08:26:46;95996.63;;;4.11;55.15
63019;BME280;49105;46.046;10.760;2023-02-28T08:29:11;95997.09;;;4.19;54.83
63019;BME280;49105;46.046;10.760;2023-02-28T08:31:37;96004.53;;;4.22;54.79
63019;BME280;49105;46.046;10.760;2023-02-28T08:34:14;96014.09;;;4.17;55.09
63019;BME280;49105;46.046;10.760;2023-02-28T08:36:41;96011.66;;;4.04;54.88
63019;BME280;49105;46.046;10.760;2023-02-28T08:39:07;96011.00;;;3.90;55.18
63019;BME280;49105;46.046;10.760;2023-02-28T08:41:34;96010.50;;;3.81;55.24
63019;BME280;49105;46.046;10.760;2023-02-28T08:44:08;96010.88;;;3.85;55.26
63019;BME280;49105;46.046;10.760;2023-02-28T08:46:43;96008.19;;;3.91;55.16
63019;BME280;49105;46.046;10.760;2023-02-28T08:49:16;96003.19;;;4.02;55.15
63019;BME280;49105;46.046;10.760;2023-02-28T08:51:41;96007.09;;;4.11;54.90
63019;BME280;49105;46.046;10.760;2023-02-28T08:54:16;96005.56;;;4.21;54.87
63019;BME280;49105;46.046;10.760;2023-02-28T08:56:50;95999.19;;;4.29;54.64
63019;BME280;49105;46.046;10.760;2023-02-28T08:59:22;95997.41;;;4.41;54.84
63019;BME280;49105;46.046;10.760;2023-02-28T09:01:57;95994.13;;;4.46;54.46
63019;BME280;49105;46.046;10.760;2023-02-28T09:04:28;95996.84;;;4.51;54.54
63019;BME280;49105;46.046;10.760;2023-02-28T09:07:02;95990.59;;;4.64;54.40
63019;BME280;49105;46.046;10.760;2023-02-28T09:09:37;95990.63;;;4.76;54.09
63019;BME280;49105;46.046;10.760;2023-02-28T09:12:02;95994.03;;;4.76;54.21
63019;BME280;49105;46.046;10.760;2023-02-28T09:14:38;95987.44;;;4.85;53.84
63019;BME280;49105;46.046;10.760;2023-02-28T09:17:07;95996.91;;;4.86;53.70
63019;BME280;49105;46.046;10.760;2023-02-28T09:19:38;95994.94;;;4.93;53.68
63019;BME280;49105;46.046;10.760;2023-02-28T09:22:13;95994.50;;;4.96;53.63
63019;BME280;49105;46.046;10.760;2023-02-28T09:24:50;95989.84;;;4.98;53.76
63019;BME280;49105;46.046;10.760;2023-02-28T09:27:19;95985.84;;;5.08;53.47
63019;BME280;49105;46.046;10.760;2023-02-28T09:29:51;95998.03;;;5.14;53.31
63019;BME280;49105;46.046;10.760;2023-02-28T09:32:16;95999.41;;;5.16;53.32
63019;BME280;49105;46.046;10.760;2023-02-28T09:34:49;95997.81;;;5.15;53.15
63019;BME280;49105;46.046;10.760;2023-02-28T09:37:20;95985.59;;;5.21;53.18
63019;BME280;49105;46.046;10.760;2023-02-28T09:39:52;95983.44;;;5.30;52.88
63019;BME280;49105;46.046;10.760;2023-02-28T09:42:25;95985.69;;;5.38;53.12
63019;BME280;49105;46.046;10.760;2023-02-28T09:44:58;95987.75;;;5.47;52.96
63019;BME280;49105;46.046;10.760;2023-02-28T09:47:34;95983.16;;;5.55;52.89
63019;BME280;49105;46.046;10.760;2023-02-28T09:52:58;95982.00;;;5.62;52.44
63019;BME280;49105;46.046;10.760;2023-02-28T09:55:45;95978.22;;;5.70;52.57
63019;BME280;49105;46.046;10.760;2023-02-28T09:58:41;95973.19;;;5.80;52.51
63019;BME280;49105;46.046;10.760;2023-02-28T10:04:03;95972.44;;;5.96;51.37
63019;BME280;49105;46.046;10.760;2023-02-28T10:06:37;95975.19;;;6.02;51.82
63019;BME280;49105;46.046;10.760;2023-02-28T10:09:13;95971.84;;;6.06;51.40
63019;BME280;49105;46.046;10.760;2023-02-28T10:11:57;95970.88;;;6.12;51.71
63019;BME280;49105;46.046;10.760;2023-02-28T10:14:28;95965.50;;;6.19;51.52
63019;BME280;49105;46.046;10.760;2023-02-28T10:17:00;95964.44;;;6.20;51.19
63019;BME280;49105;46.046;10.760;2023-02-28T10:19:35;95958.88;;;6.33;51.07
63019;BME280;49105;46.046;10.760;2023-02-28T10:22:20;95960.66;;;6.44;51.13
63019;BME280;49105;46.046;10.760;2023-02-28T10:25:18;95957.56;;;6.47;50.92
63019;BME280;49105;46.046;10.760;2023-02-28T10:27:54;95952.56;;;6.46;50.59
63019;BME280;49105;46.046;10.760;2023-02-28T10:30:23;95944.34;;;6.42;50.50
63019;BME280;49105;46.046;10.760;2023-02-28T10:32:58;95948.88;;;6.47;50.16
63019;BME280;49105;46.046;10.760;2023-02-28T10:35:26;95948.94;;;6.69;50.20
63019;BME280;49105;46.046;10.760;2023-02-28T10:37:59;95948.63;;;6.82;50.00
63019;BME280;49105;46.046;10.760;2023-02-28T10:40:33;95946.88;;;6.88;49.40
63019;BME280;49105;46.046;10.760;2023-02-28T10:45:38;95951.47;;;6.97;49.38
63019;BME280;49105;46.046;10.760;2023-02-28T11:01:37;95932.00;;;6.99;45.88
63019;BME280;49105;46.046;10.760;2023-02-28T11:06:46;95922.63;;;6.86;45.82
63019;BME280;49105;46.046;10.760;2023-02-28T11:09:39;95912.91;;;6.86;45.96
63019;BME280;49105;46.046;10.760;2023-02-28T11:12:07;95910.53;;;6.85;45.71
63019;BME280;49105;46.046;10.760;2023-02-28T11:14:47;95905.31;;;6.90;45.13
63019;BME280;49105;46.046;10.760;2023-02-28T11:17:29;95907.13;;;7.06;45.05
63019;BME280;49105;46.046;10.760;2023-02-28T11:20:06;95910.19;;;7.20;45.17
63019;BME280;49105;46.046;10.760;2023-02-28T11:22:43;95903.41;;;7.24;44.19
63019;BME280;49105;46.046;10.760;2023-02-28T11:25:28;95894.59;;;7.35;44.38
63019;BME280;49105;46.046;10.760;2023-02-28T11:28:06;95892.63;;;7.47;44.24
63019;BME280;49105;46.046;10.760;2023-02-28T11:31:00;95891.97;;;7.57;43.27
63019;BME280;49105;46.046;10.760;2023-02-28T11:34:10;95886.78;;;7.67;43.71
63019;BME280;49105;46.046;10.760;2023-02-28T11:36:54;95890.38;;;7.83;43.41
63019;BME280;49105;46.046;10.760;2023-02-28T11:39:32;95882.00;;;7.86;43.21
63019;BME280;49105;46.046;10.760;2023-02-28T11:42:37;95876.19;;;7.89;43.29
63019;BME280;49105;46.046;10.760;2023-02-28T11:48:11;95876.75;;;7.91;43.15
63019;BME280;49105;46.046;10.760;2023-02-28T12:04:17;95854.00;;;8.39;41.28
63019;BME280;49105;46.046;10.760;2023-02-28T12:16:27;95834.63;;;8.61;40.83
63019;BME280;49105;46.046;10.760;2023-02-28T12:19:17;95828.53;;;8.60;40.73
63019;BME280;49105;46.046;10.760;2023-02-28T12:27:13;95825.28;;;8.90;39.97
63019;BME280;49105;46.046;10.760;2023-02-28T12:29:56;95806.25;;;8.88;40.13
63019;BME280;49105;46.046;10.760;2023-02-28T12:32:31;95815.00;;;8.94;40.09
63019;BME280;49105;46.046;10.760;2023-02-28T12:35:02;95813.41;;;8.93;40.01
63019;BME280;49105;46.046;10.760;2023-02-28T12:37:43;95804.16;;;8.95;39.42
63019;BME280;49105;46.046;10.760;2023-02-28T12:40:22;95801.88;;;9.09;39.55
63019;BME280;49105;46.046;10.760;2023-02-28T12:43:07;95800.81;;;9.20;39.43
63019;BME280;49105;46.046;10.760;2023-02-28T12:45:56;95788.19;;;9.23;38.86
63019;BME280;49105;46.046;10.760;2023-02-28T12:48:37;95788.47;;;9.36;39.37
63019;BME280;49105;46.046;10.760;2023-02-28T12:51:12;95785.31;;;9.39;38.59
63019;BME280;49105;46.046;10.760;2023-02-28T12:59:32;95775.28;;;9.47;38.58
63019;BME280;49105;46.046;10.760;2023-02-28T13:02:33;95777.16;;;9.61;37.64
63019;BME280;49105;46.046;10.760;2023-02-28T13:08:15;95764.75;;;9.77;38.22
63019;BME280;49105;46.046;10.760;2023-02-28T13:11:01;95767.38;;;9.77;37.54
63019;BME280;49105;46.046;10.760;2023-02-28T13:13:29;95767.13;;;9.74;37.28
63019;BME280;49105;46.046;10.760;2023-02-28T13:16:09;95760.53;;;9.71;37.30
63019;BME280;49105;46.046;10.760;2023-02-28T13:18:45;95767.13;;;9.68;37.59
63019;BME280;49105;46.046;10.760;2023-02-28T13:21:27;95751.78;;;9.65;37.42
63019;BME280;49105;46.046;10.760;2023-02-28T13:34:39;95742.28;;;10.00;37.56
63019;BME280;49105;46.046;10.760;2023-02-28T13:56:09;95736.22;;;9.59;37.79
63019;BME280;49105;46.046;10.760;2023-02-28T14:11:41;95716.66;;;9.80;37.77
63019;BME280;49105;46.046;10.760;2023-02-28T14:17:05;95725.88;;;9.78;37.66
63019;BME280;49105;46.046;10.760;2023-02-28T14:19:44;95712.69;;;9.88;38.03
63019;BME280;49105;46.046;10.760;2023-02-28T14:27:50;95727.72;;;10.03;37.56
63019;BME280;49105;46.046;10.760;2023-02-28T14:34:34;95714.50;;;10.08;37.71
63019;BME280;49105;46.046;10.760;2023-02-28T14:36:37;95710.28;;;9.97;37.89
63019;BME280;49105;46.046;10.760;2023-02-28T14:39:06;95716.66;;;9.85;38.10
63019;BME280;49105;46.046;10.760;2023-02-28T14:41:43;95712.94;;;9.76;37.85
63019;BME280;49105;46.046;10.760;2023-02-28T14:47:20;95700.25;;;9.73;37.81
63019;BME280;49105;46.046;10.760;2023-02-28T14:49:53;95704.50;;;9.69;37.96
63019;BME280;49105;46.046;10.760;2023-02-28T14:52:23;95711.34;;;9.65;38.17
63019;BME280;49105;46.046;10.760;2023-02-28T14:54:55;95701.31;;;9.62;37.76
63019;BME280;49105;46.046;10.760;2023-02-28T14:57:32;95700.25;;;9.58;37.86
63019;BME280;49105;46.046;10.760;2023-02-28T15:00:12;95698.16;;;9.55;38.65
63019;BME280;49105;46.046;10.760;2023-02-28T15:02:42;95693.13;;;9.53;38.61
63019;BME280;49105;46.046;10.760;2023-02-28T15:07:43;95701.31;;;9.47;38.61
63019;BME280;49105;46.046;10.760;2023-02-28T15:10:25;95706.34;;;9.43;38.80
63019;BME280;49105;46.046;10.760;2023-02-28T15:13:02;95693.66;;;9.35;38.84
63019;BME280;49105;46.046;10.760;2023-02-28T15:15:51;95701.31;;;9.26;39.22
63019;BME280;49105;46.046;10.760;2023-02-28T15:18:30;95695.19;;;9.20;39.07
63019;BME280;49105;46.046;10.760;2023-02-28T15:21:03;95704.41;;;9.13;39.03
63019;BME280;49105;46.046;10.760;2023-02-28T15:23:35;95700.47;;;9.05;39.17
63019;BME280;49105;46.046;10.760;2023-02-28T15:26:05;95698.34;;;9.02;39.43
63019;BME280;49105;46.046;10.760;2023-02-28T15:28:36;95696.22;;;8.99;39.91
63019;BME280;49105;46.046;10.760;2023-02-28T15:31:26;95702.28;;;8.94;40.04
63019;BME280;49105;46.046;10.760;2023-02-28T15:34:03;95697.50;;;8.86;40.10
63019;BME280;49105;46.046;10.760;2023-02-28T15:36:39;95704.88;;;8.79;40.23
63019;BME280;49105;46.046;10.760;2023-02-28T15:39:23;95704.84;;;8.69;40.13
63019;BME280;49105;46.046;10.760;2023-02-28T15:42:27;95706.91;;;8.62;40.86
63019;BME280;49105;46.046;10.760;2023-02-28T15:44:53;95710.31;;;8.52;40.76
63019;BME280;49105;46.046;10.760;2023-02-28T15:47:29;95709.47;;;8.47;40.91
63019;BME280;49105;46.046;10.760;2023-02-28T15:50:10;95702.84;;;8.39;41.18
63019;BME280;49105;46.046;10.760;2023-02-28T15:52:39;95709.91;;;8.28;41.38
63019;BME280;49105;46.046;10.760;2023-02-28T15:55:17;95704.28;;;8.14;41.98
63019;BME280;49105;46.046;10.760;2023-02-28T15:57:44;95717.94;;;8.06;41.86
63019;BME280;49105;46.046;10.760;2023-02-28T16:00:18;95716.59;;;7.99;42.09
63019;BME280;49105;46.046;10.760;2023-02-28T16:02:51;95727.03;;;7.88;42.30
63019;BME280;49105;46.046;10.760;2023-02-28T16:05:21;95728.81;;;7.78;42.41
63019;BME280;49105;46.046;10.760;2023-02-28T16:08:14;95731.38;;;7.67;42.73
63019;BME280;49105;46.046;10.760;2023-02-28T16:11:00;95723.13;;;7.59;43.04
63019;BME280;49105;46.046;10.760;2023-02-28T16:13:25;95738.91;;;7.54;42.90
63019;BME280;49105;46.046;10.760;2023-02-28T16:15:50;95737.25;;;7.47;43.06
63019;BME280;49105;46.046;10.760;2023-02-28T16:18:22;95736.72;;;7.45;43.13
63019;BME280;49105;46.046;10.760;2023-02-28T16:20:47;95736.41;;;7.42;43.10
63019;BME280;49105;46.046;10.760;2023-02-28T16:23:47;95735.81;;;7.35;43.31